Time;durP1;ratioP1;P1;durP2;ratioP2;P2;SDS_P1;SDS_P2;PMS_P1;PMS_P2;Temp;Humidity;BMP_temperature;BMP_pressure;BME280_temperature;BME280_humidity;BME280_pressure;Samples;Min_cycle;Max_cycle;Signal;HPM_P1;HPM_P2
2021/05/19 05:35:26;;;;;;;7.72;2.10;;;;;;;;;;4287293;23;20022;-73
2021/05/19 05:37:52;;;;;;;5.97;2.05;;;;;;;;;;4895898;29;20055;-67
2021/05/19 05:40:18;;;;;;;4.63;2.13;;;;;;;;;;4896945;29;20382;-73
2021/05/19 05:42:44;;;;;;;5.97;2.05;;;;;;;;;;4897835;29;20061;-80
2021/05/19 05:45:10;;;;;;;6.43;2.17;;;;;;;;;;4896513;29;20401;-66
2021/05/19 05:47:36;;;;;;;7.35;2.15;;;;;;;;;;4897873;29;20036;-66
2021/05/19 05:50:04;;;;;;;4.70;2.10;;;;;;;;;;4880658;29;20116;-66
2021/05/19 05:52:30;;;;;;;3.97;2.28;;;;;;;;;;4898031;29;20793;-73
2021/05/19 05:54:56;;;;;;;6.78;2.30;;;;;;;;;;4897514;29;20548;-76
2021/05/19 05:57:22;;;;;;;4.75;2.33;;;;;;;;;;4897784;29;20034;-77
2021/05/19 05:59:49;;;;;;;7.65;2.75;;;;;;;;;;4897950;29;20120;-74
2021/05/19 06:02:15;;;;;;;5.55;2.67;;;;;;;;;;4897984;29;20039;-78
2021/05/19 06:04:41;;;;;;;8.27;3.13;;;;;;;;;;4897868;29;20036;-79
2021/05/19 06:07:07;;;;;;;9.15;3.50;;;;;;;;;;4897704;29;20041;-76
2021/05/19 06:09:33;;;;;;;6.88;3.40;;;;;;;;;;4881200;29;20032;-77
2021/05/19 06:11:59;;;;;;;8.55;3.17;;;;;;;;;;4897830;29;20036;-77
2021/05/19 06:14:25;;;;;;;6.20;2.97;;;;;;;;;;4897314;29;20032;-72
2021/05/19 06:16:51;;;;;;;6.30;2.97;;;;;;;;;;4897471;29;20116;-73
2021/05/19 06:19:18;;;;;;;5.13;3.00;;;;;;;;;;4896923;29;20485;-73
2021/05/19 06:21:44;;;;;;;9.40;3.70;;;;;;;;;;4896853;29;20033;-71
2021/05/19 06:24:10;;;;;;;5.32;3.28;;;;;;;;;;4896437;29;20055;-71
2021/05/19 06:26:37;;;;;;;8.32;3.78;;;;;;;;;;4901247;29;20055;-72
2021/05/19 06:29:03;;;;;;;6.97;3.47;;;;;;;;;;4915516;29;20044;-70
2021/05/19 06:31:29;;;;;;;6.57;3.38;;;;;;;;;;4916277;29;20476;-72
2021/05/19 06:33:55;;;;;;;7.75;3.63;;;;;;;;;;4916230;29;20036;-73
2021/05/19 06:36:21;;;;;;;9.23;3.80;;;;;;;;;;4908488;29;20087;-73
2021/05/19 06:38:47;;;;;;;10.82;4.25;;;;;;;;;;4896773;29;20035;-72
2021/05/19 06:41:13;;;;;;;9.10;3.92;;;;;;;;;;4897700;29;20020;-73
2021/05/19 06:43:39;;;;;;;11.02;4.20;;;;;;;;;;4897384;29;20072;-74
2021/05/19 06:46:05;;;;;;;10.73;4.30;;;;;;;;;;4897656;29;20032;-71
2021/05/19 06:48:31;;;;;;;7.38;4.25;;;;;;;;;;4897715;29;20111;-75
2021/05/19 06:50:57;;;;;;;7.72;3.90;;;;;;;;;;4897239;29;20020;-70
2021/05/19 06:53:24;;;;;;;7.93;3.88;;;;;;;;;;4897628;29;20145;-71
2021/05/19 06:55:52;;;;;;;6.03;4.03;;;;;;;;;;4897177;29;20033;-71
2021/05/19 06:58:18;;;;;;;9.55;4.28;;;;;;;;;;4897333;29;20028;-67
2021/05/19 07:00:44;;;;;;;10.52;4.10;;;;;;;;;;4897047;29;20111;-73
2021/05/19 07:03:10;;;;;;;10.70;5.05;;;;;;;;;;4897065;29;20051;-73
2021/05/19 07:05:36;;;;;;;7.38;4.70;;;;;;;;;;4879802;29;20049;-66
2021/05/19 07:08:05;;;;;;;7.80;3.90;;;;;;;;;;4897044;29;20032;-69
2021/05/19 07:10:31;;;;;;;7.95;4.47;;;;;;;;;;4896832;29;20021;-68
2021/05/19 07:12:57;;;;;;;7.97;4.28;;;;;;;;;;4895818;29;20033;-69
2021/05/19 07:15:23;;;;;;;8.07;3.65;;;;;;;;;;4878435;29;20366;-70
2021/05/19 07:17:49;;;;;;;11.52;5.20;;;;;;;;;;4895508;29;20036;-68
2021/05/19 07:20:15;;;;;;;8.98;5.32;;;;;;;;;;4894458;29;20038;-70
2021/05/19 07:22:41;;;;;;;14.43;6.22;;;;;;;;;;4895559;29;20072;-69
2021/05/19 07:25:08;;;;;;;11.75;6.18;;;;;;;;;;4896533;29;20035;-66
2021/05/19 07:27:34;;;;;;;12.82;6.80;;;;;;;;;;4896506;29;20096;-68
2021/05/19 07:30:01;;;;;;;16.77;9.40;;;;;;;;;;4888961;29;20025;-66
2021/05/19 07:32:27;;;;;;;15.18;9.15;;;;;;;;;;4877064;29;20073;-66
2021/05/19 07:34:53;;;;;;;15.82;8.48;;;;;;;;;;4877577;29;20505;-69
2021/05/19 07:37:19;;;;;;;14.52;7.70;;;;;;;;;;4876610;29;20458;-69
2021/05/19 07:39:46;;;;;;;17.58;8.10;;;;;;;;;;4877741;29;20369;-70
2021/05/19 07:42:16;;;;;;;15.40;7.95;;;;;;;;;;4860334;29;20474;-65
2021/05/19 07:44:43;;;;;;;14.68;7.60;;;;;;;;;;4877633;29;20037;-68
2021/05/19 07:47:09;;;;;;;17.13;7.68;;;;;;;;;;4877569;29;20417;-64
2021/05/19 07:49:35;;;;;;;14.57;8.05;;;;;;;;;;4877822;29;20029;-71
2021/05/19 07:52:01;;;;;;;21.33;8.93;;;;;;;;;;4877419;29;20056;-64
2021/05/19 07:54:29;;;;;;;15.02;9.30;;;;;;;;;;4877221;29;20096;-64
2021/05/19 07:57:02;;;;;;;10.88;6.78;;;;;;;;;;4876814;29;20028;-64
2021/05/19 07:59:29;;;;;;;10.93;6.45;;;;;;;;;;4877396;29;20473;-64
2021/05/19 08:02:03;;;;;;;9.52;5.53;;;;;;;;;;4875929;29;20033;-64
2021/05/19 08:04:30;;;;;;;11.75;7.00;;;;;;;;;;4877465;29;20033;-64
2021/05/19 08:06:56;;;;;;;10.77;6.45;;;;;;;;;;4876742;29;20041;-64
2021/05/19 08:09:23;;;;;;;10.50;5.93;;;;;;;;;;4877108;29;20033;-69
2021/05/19 08:11:49;;;;;;;10.13;5.90;;;;;;;;;;4877379;29;20773;-68
2021/05/19 08:14:15;;;;;;;10.32;6.38;;;;;;;;;;4876869;29;20397;-66
2021/05/19 08:16:42;;;;;;;9.38;4.75;;;;;;;;;;4877479;29;20033;-71
2021/05/19 08:19:08;;;;;;;6.80;3.15;;;;;;;;;;4877438;29;20037;-68
2021/05/19 08:21:35;;;;;;;6.10;2.90;;;;;;;;;;4876122;29;20052;-73
2021/05/19 08:24:01;;;;;;;4.00;1.83;;;;;;;;;;4877217;29;20074;-68
2021/05/19 08:26:27;;;;;;;8.25;3.35;;;;;;;;;;4877004;29;20393;-69
2021/05/19 08:28:53;;;;;;;7.75;5.60;;;;;;;;;;4877368;29;20037;-63
2021/05/19 08:31:20;;;;;;;7.53;5.10;;;;;;;;;;4877237;29;20033;-62
2021/05/19 08:33:46;;;;;;;9.90;5.90;;;;;;;;;;4877005;29;20088;-70
2021/05/19 08:36:13;;;;;;;11.95;7.15;;;;;;;;;;4876843;29;20580;-71
2021/05/19 08:38:39;;;;;;;13.63;7.50;;;;;;;;;;4877272;29;20398;-64
2021/05/19 08:41:06;;;;;;;8.35;6.22;;;;;;;;;;4877063;29;20097;-65
2021/05/19 08:43:32;;;;;;;10.93;7.05;;;;;;;;;;4877071;29;20041;-67
2021/05/19 08:45:58;;;;;;;10.02;6.75;;;;;;;;;;4877158;29;20429;-73
2021/05/19 08:48:25;;;;;;;8.82;6.00;;;;;;;;;;4880912;29;20037;-68
2021/05/19 08:50:51;;;;;;;10.23;6.80;;;;;;;;;;4882974;29;20036;-65
2021/05/19 08:53:17;;;;;;;9.05;6.35;;;;;;;;;;4882947;29;20032;-65
2021/05/19 08:55:44;;;;;;;11.70;6.88;;;;;;;;;;4882837;29;20073;-65
2021/05/19 08:58:10;;;;;;;11.00;7.47;;;;;;;;;;4882886;29;20033;-65
2021/05/19 09:00:36;;;;;;;7.47;3.85;;;;;;;;;;4882934;29;20021;-70
2021/05/19 09:03:08;;;;;;;5.25;2.60;;;;;;;;;;4882848;29;20036;-65
2021/05/19 09:05:34;;;;;;;;;;;;;;;;;;4883287;29;20037;-67
2021/05/19 09:08:26;;;;;;;7.13;4.05;;;;;;;;;;4882759;29;20006;-71
2021/05/19 09:10:58;;;;;;;3.88;2.28;;;;;;;;;;4880375;29;20045;-66
2021/05/19 09:13:42;;;;;;;4.03;2.47;;;;;;;;;;4883041;29;20037;-65
2021/05/19 09:16:09;;;;;;;3.65;2.08;;;;;;;;;;4882590;29;20029;-64
2021/05/19 09:18:45;;;;;;;5.55;2.80;;;;;;;;;;4874045;29;20017;-66
2021/05/19 09:21:11;;;;;;;5.95;3.20;;;;;;;;;;4873351;29;20510;-65
2021/05/19 09:23:51;;;;;;;8.20;4.75;;;;;;;;;;4878110;29;20123;-72
2021/05/19 09:26:17;;;;;;;9.45;4.45;;;;;;;;;;4880483;29;20028;-70
2021/05/19 09:28:43;;;;;;;6.63;3.45;;;;;;;;;;4881013;29;20084;-73
2021/05/19 09:31:19;;;;;;;6.38;2.92;;;;;;;;;;4881372;29;20485;-73
2021/05/19 09:33:45;;;;;;;6.55;2.30;;;;;;;;;;4881272;29;20029;-71
2021/05/19 09:36:21;;;;;;;5.95;2.13;;;;;;;;;;4880248;29;20049;-72
2021/05/19 09:38:52;;;;;;;6.57;2.63;;;;;;;;;;4871224;29;20036;-68
2021/05/19 09:41:28;;;;;;;5.03;2.58;;;;;;;;;;4872036;29;20079;-74
2021/05/19 09:43:56;;;;;;;4.38;2.03;;;;;;;;;;4871728;29;20085;-78
2021/05/19 09:49:09;;;;;;;6.47;3.38;;;;;;;;;;4881309;29;20033;-64
2021/05/19 09:51:35;;;;;;;6.85;3.60;;;;;;;;;;4879312;29;20111;-67
2021/05/19 09:54:01;;;;;;;6.43;3.60;;;;;;;;;;4881202;29;20112;-67
2021/05/19 09:56:28;;;;;;;6.85;3.00;;;;;;;;;;4881281;29;20507;-65
2021/05/19 09:58:54;;;;;;;6.07;2.90;;;;;;;;;;4879323;29;20021;-66
2021/05/19 10:01:20;;;;;;;7.22;3.40;;;;;;;;;;4878601;29;20108;-69
2021/05/19 10:03:46;;;;;;;7.93;3.15;;;;;;;;;;4878195;29;20438;-68
2021/05/19 10:06:23;;;;;;;6.55;2.58;;;;;;;;;;4878055;29;20036;-67
2021/05/19 10:08:50;;;;;;;6.05;2.38;;;;;;;;;;4878442;29;20481;-69
2021/05/19 10:11:16;;;;;;;6.32;2.50;;;;;;;;;;4879006;29;20040;-68
2021/05/19 10:13:43;;;;;;;5.05;2.70;;;;;;;;;;4878508;29;20033;-66
2021/05/19 10:16:10;;;;;;;4.32;2.60;;;;;;;;;;4878326;29;20147;-66
2021/05/19 10:18:40;;;;;;;7.07;2.75;;;;;;;;;;4878462;29;20370;-69
2021/05/19 10:21:07;;;;;;;5.78;3.20;;;;;;;;;;4878304;29;20524;-65
2021/05/19 10:23:39;;;;;;;5.70;3.08;;;;;;;;;;4877950;29;20051;-67
2021/05/19 10:26:14;;;;;;;9.07;4.63;;;;;;;;;;4877643;29;20051;-70
2021/05/19 10:28:40;;;;;;;7.35;4.20;;;;;;;;;;4860078;29;20030;-65
2021/05/19 10:31:21;;;;;;;5.10;2.38;;;;;;;;;;4862388;29;20037;-65
2021/05/19 10:33:47;;;;;;;7.03;3.25;;;;;;;;;;4878393;29;20605;-66
2021/05/19 10:36:25;;;;;;;5.55;2.70;;;;;;;;;;4878367;29;20136;-65
2021/05/19 10:39:10;;;;;;;5.07;2.70;;;;;;;;;;4878726;29;20284;-69
2021/05/19 10:41:40;;;;;;;3.92;2.17;;;;;;;;;;4879043;29;20064;-68
2021/05/19 10:44:07;;;;;;;5.28;3.10;;;;;;;;;;4878285;29;20044;-64
2021/05/19 10:46:50;;;;;;;10.35;6.97;;;;;;;;;;4875040;29;20053;-66
2021/05/19 10:49:19;;;;;;;9.68;6.55;;;;;;;;;;4876218;29;20073;-66
2021/05/19 11:00:00;;;;;;;6.88;4.90;;;;;;;;;;4859854;29;20401;-68
2021/05/19 11:02:26;;;;;;;8.50;4.70;;;;;;;;;;4859492;29;20029;-69
2021/05/19 11:05:11;;;;;;;6.07;3.90;;;;;;;;;;4859752;29;20121;-69
2021/05/19 11:07:43;;;;;;;8.38;4.00;;;;;;;;;;4858128;29;20042;-68
2021/05/19 11:10:30;;;;;;;5.65;3.55;;;;;;;;;;4859091;29;20025;-70
2021/05/19 11:12:56;;;;;;;8.38;4.63;;;;;;;;;;4859957;29;20042;-70
2021/05/19 11:16:16;;;;;;;8.48;5.72;;;;;;;;;;4866662;29;20025;-68
2021/05/19 11:21:13;;;;;;;9.73;5.63;;;;;;;;;;4876392;29;20025;-70
2021/05/19 11:23:39;;;;;;;7.10;4.38;;;;;;;;;;4874550;29;20124;-71
2021/05/19 11:26:15;;;;;;;9.88;5.60;;;;;;;;;;4876677;29;20056;-68
2021/05/19 11:28:42;;;;;;;8.57;4.82;;;;;;;;;;4874789;29;20025;-68
2021/05/19 11:31:13;;;;;;;8.95;4.10;;;;;;;;;;4876833;29;20060;-72
2021/05/19 11:33:51;;;;;;;6.22;2.65;;;;;;;;;;4874163;29;20032;-69
2021/05/19 11:36:29;;;;;;;4.50;2.90;;;;;;;;;;4873740;29;20060;-72
2021/05/19 11:38:56;;;;;;;4.55;2.80;;;;;;;;;;4876784;29;20108;-70
2021/05/19 11:41:22;;;;;;;5.28;2.10;;;;;;;;;;4877696;29;20025;-71
2021/05/19 11:43:48;;;;;;;5.00;2.10;;;;;;;;;;4877484;29;20041;-71
2021/05/19 11:46:14;;;;;;;4.60;1.65;;;;;;;;;;4877735;29;20375;-71
2021/05/19 11:48:43;;;;;;;3.72;1.40;;;;;;;;;;4877702;29;20037;-72
2021/05/19 11:51:22;;;;;;;4.15;1.73;;;;;;;;;;4877518;29;20032;-72
2021/05/19 11:54:00;;;;;;;3.40;1.52;;;;;;;;;;4877411;29;20462;-71
2021/05/19 11:56:40;;;;;;;4.75;1.58;;;;;;;;;;4877515;29;20493;-72
2021/05/19 11:59:12;;;;;;;4.35;1.42;;;;;;;;;;4877500;29;20025;-68
2021/05/19 12:01:39;;;;;;;6.50;1.60;;;;;;;;;;4877572;29;20065;-71
2021/05/19 12:04:16;;;;;;;2.90;1.40;;;;;;;;;;4877351;29;20109;-71
2021/05/19 12:06:48;;;;;;;2.63;1.30;;;;;;;;;;4877086;29;20040;-71
2021/05/19 12:09:18;;;;;;;5.82;1.67;;;;;;;;;;4877109;29;20045;-71
2021/05/19 12:11:45;;;;;;;5.00;1.48;;;;;;;;;;4877373;29;20465;-72
2021/05/19 12:14:11;;;;;;;2.85;1.50;;;;;;;;;;4877257;29;20485;-71
2021/05/19 12:16:43;;;;;;;2.22;1.27;;;;;;;;;;4877290;29;20025;-72
2021/05/19 12:19:10;;;;;;;4.30;1.63;;;;;;;;;;4875292;29;20031;-72
2021/05/19 12:21:36;;;;;;;3.10;1.30;;;;;;;;;;4875874;29;20048;-70
2021/05/19 12:24:03;;;;;;;4.32;1.75;;;;;;;;;;4876381;29;20041;-70
2021/05/19 12:26:29;;;;;;;3.83;1.27;;;;;;;;;;4877254;29;20032;-70
2021/05/19 12:28:55;;;;;;;2.10;1.20;;;;;;;;;;4877117;29;20033;-70
2021/05/19 12:31:32;;;;;;;4.47;1.17;;;;;;;;;;4877413;29;20040;-71
2021/05/19 12:33:58;;;;;;;5.03;1.40;;;;;;;;;;4877262;29;20060;-70
2021/05/19 12:36:24;;;;;;;1.60;0.88;;;;;;;;;;4874263;29;20053;-71
2021/05/19 12:38:51;;;;;;;1.85;1.13;;;;;;;;;;4876952;29;20100;-71
2021/05/19 12:41:35;;;;;;;2.63;0.90;;;;;;;;;;4877263;29;20521;-71
2021/05/19 12:44:02;;;;;;;1.15;0.80;;;;;;;;;;4876057;29;20079;-71
2021/05/19 12:46:28;;;;;;;2.95;1.70;;;;;;;;;;4875813;29;20029;-74
2021/05/19 12:48:54;;;;;;;6.85;2.58;;;;;;;;;;4874358;29;20036;-71
2021/05/19 12:51:20;;;;;;;3.33;1.10;;;;;;;;;;4874838;29;20024;-68
2021/05/19 12:53:48;;;;;;;5.90;2.13;;;;;;;;;;4875922;29;20076;-69
2021/05/19 12:56:16;;;;;;;2.78;1.20;;;;;;;;;;4876307;29;20029;-70
2021/05/19 12:59:00;;;;;;;1.85;0.93;;;;;;;;;;4876171;29;20029;-70
2021/05/19 13:01:30;;;;;;;2.63;1.08;;;;;;;;;;4876519;29;20460;-69
2021/05/19 13:03:59;;;;;;;1.42;0.70;;;;;;;;;;4876052;29;20045;-69
2021/05/19 13:06:26;;;;;;;2.13;0.95;;;;;;;;;;4875478;29;20025;-70
2021/05/19 13:09:00;;;;;;;3.25;1.13;;;;;;;;;;4874665;29;20120;-70
2021/05/19 13:11:27;;;;;;;1.90;0.90;;;;;;;;;;4875791;29;20029;-70
2021/05/19 13:13:53;;;;;;;2.05;1.02;;;;;;;;;;4875877;29;20037;-71
2021/05/19 13:16:20;;;;;;;1.40;0.70;;;;;;;;;;4876093;29;20052;-69
2021/05/19 13:18:56;;;;;;;3.10;1.20;;;;;;;;;;4876432;29;20040;-71
2021/05/19 13:21:29;;;;;;;3.78;2.05;;;;;;;;;;4876342;29;20465;-70
2021/05/19 13:23:56;;;;;;;4.20;2.30;;;;;;;;;;4875730;29;20076;-70
2021/05/19 13:26:29;;;;;;;4.55;2.70;;;;;;;;;;4876335;29;20064;-71
2021/05/19 13:28:56;;;;;;;6.65;2.72;;;;;;;;;;4875725;29;20089;-72
2021/05/19 13:31:23;;;;;;;7.25;3.50;;;;;;;;;;4875769;29;20059;-69
2021/05/19 13:36:23;;;;;;;4.70;3.55;;;;;;;;;;4879497;29;20143;-72
2021/05/19 13:38:49;;;;;;;8.20;3.95;;;;;;;;;;4879664;29;20050;-73
2021/05/19 13:41:16;;;;;;;5.93;3.95;;;;;;;;;;4879506;29;20041;-72
2021/05/19 13:43:43;;;;;;;5.68;3.85;;;;;;;;;;4878954;29;20124;-72
2021/05/19 13:46:09;;;;;;;7.55;4.30;;;;;;;;;;4879386;29;20104;-73
2021/05/19 13:48:35;;;;;;;9.00;4.60;;;;;;;;;;4879913;29;20064;-72
2021/05/19 13:51:01;;;;;;;5.32;3.53;;;;;;;;;;4879626;29;20041;-71
2021/05/19 13:53:27;;;;;;;6.47;3.83;;;;;;;;;;4879386;29;20040;-70
2021/05/19 13:56:01;;;;;;;4.53;3.20;;;;;;;;;;4880058;29;20068;-70
2021/05/19 13:58:29;;;;;;;6.68;3.70;;;;;;;;;;4879289;29;20017;-71
2021/05/19 14:00:55;;;;;;;6.07;3.42;;;;;;;;;;4879822;29;20033;-68
2021/05/19 14:03:26;;;;;;;4.97;2.92;;;;;;;;;;4879420;29;20045;-69
2021/05/19 14:05:52;;;;;;;6.47;3.28;;;;;;;;;;4879426;29;20409;-70
2021/05/19 14:08:18;;;;;;;8.35;3.58;;;;;;;;;;4879352;29;20040;-71
2021/05/19 14:10:52;;;;;;;6.38;3.53;;;;;;;;;;4879017;29;20029;-70
2021/05/19 14:13:18;;;;;;;6.03;3.60;;;;;;;;;;4879469;29;20040;-70
2021/05/19 14:29:32;;;;;;;8.70;3.70;;;;;;;;;;4879081;29;20065;-70
2021/05/19 14:31:58;;;;;;;6.63;3.88;;;;;;;;;;4878963;29;20028;-69
2021/05/19 14:34:25;;;;;;;6.20;3.70;;;;;;;;;;4879161;29;20362;-70
2021/05/19 15:00:52;;;;;;;12.43;5.63;;;;;;;;;;4877069;29;20144;-71
2021/05/19 15:03:19;;;;;;;10.65;5.93;;;;;;;;;;4875490;29;20044;-70
2021/05/19 15:05:45;;;;;;;10.43;5.47;;;;;;;;;;4877053;29;20044;-69
2021/05/19 15:08:11;;;;;;;14.68;5.53;;;;;;;;;;4877479;29;20066;-68
2021/05/19 15:10:38;;;;;;;8.27;5.53;;;;;;;;;;4877610;29;20108;-70
2021/05/19 15:13:04;;;;;;;17.05;8.15;;;;;;;;;;4878218;29;20112;-71
2021/05/19 15:15:30;;;;;;;13.50;7.20;;;;;;;;;;4877338;29;20528;-67
2021/05/19 15:17:57;;;;;;;8.23;5.60;;;;;;;;;;4878270;29;20385;-72
2021/05/19 15:20:24;;;;;;;12.98;8.20;;;;;;;;;;4877729;29;20052;-70
2021/05/19 15:22:50;;;;;;;11.40;7.63;;;;;;;;;;4877728;29;20052;-68
2021/05/19 15:25:16;;;;;;;12.48;6.30;;;;;;;;;;4877667;29;20112;-72
2021/05/19 15:27:42;;;;;;;8.98;5.68;;;;;;;;;;4877359;29;20470;-71
2021/05/19 15:30:08;;;;;;;9.65;5.10;;;;;;;;;;4877214;29;20040;-73
2021/05/19 15:32:35;;;;;;;5.50;3.33;;;;;;;;;;4877489;29;20489;-68
2021/05/19 15:35:01;;;;;;;5.80;3.70;;;;;;;;;;4877074;29;20037;-70
2021/05/19 15:40:17;;;;;;;9.20;5.28;;;;;;;;;;4893814;29;20139;-64
2021/05/19 15:42:43;;;;;;;11.40;4.38;;;;;;;;;;4879270;29;20037;-70
2021/05/19 15:45:09;;;;;;;9.15;4.68;;;;;;;;;;4895796;29;20519;-70
2021/05/19 15:47:35;;;;;;;9.13;5.18;;;;;;;;;;4895357;29;20574;-68
2021/05/19 15:50:02;;;;;;;6.55;4.45;;;;;;;;;;4895073;29;20571;-69
2021/05/19 15:52:28;;;;;;;9.70;5.20;;;;;;;;;;4903735;29;20043;-66
2021/05/19 15:54:54;;;;;;;9.95;5.00;;;;;;;;;;4893183;29;20028;-71
2021/05/19 15:57:20;;;;;;;9.75;5.93;;;;;;;;;;4895094;29;20536;-70
2021/05/19 15:59:47;;;;;;;12.43;6.32;;;;;;;;;;4896038;29;20056;-76
2021/05/19 16:02:13;;;;;;;11.57;7.13;;;;;;;;;;4894271;29;20115;-70
2021/05/19 16:04:42;;;;;;;11.70;8.20;;;;;;;;;;4895480;29;20033;-77
2021/05/19 16:07:08;;;;;;;16.08;9.93;;;;;;;;;;4895588;29;20020;-69
2021/05/19 16:09:34;;;;;;;19.20;10.45;;;;;;;;;;4895300;29;20060;-73
2021/05/19 16:12:01;;;;;;;14.52;10.55;;;;;;;;;;4895993;29;20516;-72
2021/05/19 16:14:28;;;;;;;16.05;9.82;;;;;;;;;;4895710;29;20036;-71
2021/05/19 16:16:54;;;;;;;15.48;9.40;;;;;;;;;;4895605;29;20025;-66
2021/05/19 16:19:20;;;;;;;14.30;9.93;;;;;;;;;;4895767;29;20032;-70
2021/05/19 16:21:46;;;;;;;14.88;9.95;;;;;;;;;;4895539;29;20060;-67
2021/05/19 16:24:12;;;;;;;12.23;8.75;;;;;;;;;;4895406;29;20036;-70
2021/05/19 16:26:38;;;;;;;11.60;8.30;;;;;;;;;;4895146;29;20025;-69
2021/05/19 16:32:12;;;;;;;14.57;8.23;;;;;;;;;;4895645;29;20044;-72
2021/05/19 16:34:38;;;;;;;12.88;8.18;;;;;;;;;;4895392;29;20084;-74
2021/05/19 16:37:05;;;;;;;11.15;7.57;;;;;;;;;;4894557;29;20144;-70
2021/05/19 16:39:31;;;;;;;12.80;8.77;;;;;;;;;;4893614;29;20063;-68
2021/05/19 16:41:59;;;;;;;13.77;8.65;;;;;;;;;;4895256;29;20041;-72
2021/05/19 16:44:26;;;;;;;15.00;8.35;;;;;;;;;;4894415;29;20040;-70
2021/05/19 16:46:53;;;;;;;14.35;9.13;;;;;;;;;;4877310;29;20040;-68
2021/05/19 16:49:20;;;;;;;14.82;9.10;;;;;;;;;;4891107;29;20362;-71
2021/05/19 16:51:49;;;;;;;11.10;7.93;;;;;;;;;;4889418;29;20359;-71
2021/05/19 16:54:16;;;;;;;12.07;7.90;;;;;;;;;;4889494;29;20020;-70
2021/05/19 16:56:43;;;;;;;14.20;8.80;;;;;;;;;;4878148;29;20581;-70
2021/05/19 16:59:10;;;;;;;13.90;8.07;;;;;;;;;;4894974;29;20077;-70
2021/05/19 17:06:51;;;;;;;10.65;7.07;;;;;;;;;;4894150;29;20032;-69
2021/05/19 17:09:17;;;;;;;12.88;7.30;;;;;;;;;;4896854;29;20069;-70
2021/05/19 17:11:45;;;;;;;13.02;8.40;;;;;;;;;;4898634;29;20173;-69
2021/05/19 17:14:12;;;;;;;11.40;7.45;;;;;;;;;;4890864;29;20104;-69
2021/05/19 17:16:38;;;;;;;10.98;7.13;;;;;;;;;;4879832;29;20053;-69
2021/05/19 17:19:05;;;;;;;9.73;6.78;;;;;;;;;;4880536;29;20041;-69
2021/05/19 17:21:32;;;;;;;13.85;7.85;;;;;;;;;;4880011;29;20036;-69
2021/05/19 17:23:58;;;;;;;12.55;7.97;;;;;;;;;;4879679;29;20517;-68
2021/05/19 17:26:25;;;;;;;12.32;7.30;;;;;;;;;;4880022;29;20037;-69
2021/05/19 17:28:51;;;;;;;10.10;7.47;;;;;;;;;;4879777;29;20037;-69
2021/05/19 17:31:17;;;;;;;10.35;7.28;;;;;;;;;;4886759;29;20029;-68
2021/05/19 17:33:44;;;;;;;12.23;7.35;;;;;;;;;;4897974;29;20043;-72
2021/05/19 17:36:17;;;;;;;9.73;7.00;;;;;;;;;;4893376;29;20036;-69
2021/05/19 17:38:45;;;;;;;10.13;7.05;;;;;;;;;;4896676;29;20036;-70
2021/05/19 17:41:11;;;;;;;11.05;6.63;;;;;;;;;;4894971;29;20423;-67
2021/05/19 17:43:37;;;;;;;12.25;7.28;;;;;;;;;;4897643;29;20047;-69
2021/05/19 17:46:03;;;;;;;9.35;5.90;;;;;;;;;;4878949;29;20454;-65
2021/05/19 17:48:30;;;;;;;9.20;5.88;;;;;;;;;;4885594;29;20040;-65
2021/05/19 17:50:57;;;;;;;8.55;5.18;;;;;;;;;;4879777;29;20500;-67
2021/05/19 17:53:23;;;;;;;8.23;5.10;;;;;;;;;;4878934;29;20032;-68
2021/05/19 17:55:49;;;;;;;11.43;7.07;;;;;;;;;;4878119;29;20029;-67
2021/05/19 17:58:15;;;;;;;9.13;6.03;;;;;;;;;;4879133;29;20028;-67
2021/05/19 18:00:43;;;;;;;6.80;5.13;;;;;;;;;;4878793;29;20082;-67
2021/05/19 18:03:11;;;;;;;15.40;5.85;;;;;;;;;;4878954;29;20033;-67
2021/05/19 18:05:38;;;;;;;12.20;6.40;;;;;;;;;;4879300;29;20067;-67
2021/05/19 18:08:05;;;;;;;12.48;6.38;;;;;;;;;;4878905;29;20063;-66
2021/05/19 18:10:31;;;;;;;11.68;6.97;;;;;;;;;;4879223;29;20037;-67
2021/05/19 18:12:57;;;;;;;10.35;5.78;;;;;;;;;;4879294;29;20481;-67
2021/05/19 18:15:24;;;;;;;9.82;5.85;;;;;;;;;;4879239;29;20063;-68
2021/05/19 18:17:52;;;;;;;13.52;6.38;;;;;;;;;;4878715;29;20545;-65
2021/05/19 18:20:18;;;;;;;10.63;6.75;;;;;;;;;;4878094;29;20116;-68
2021/05/19 18:22:44;;;;;;;10.25;6.68;;;;;;;;;;4879088;29;20036;-67
2021/05/19 18:25:11;;;;;;;12.50;7.45;;;;;;;;;;4878836;29;20441;-67
2021/05/19 18:27:38;;;;;;;12.93;6.93;;;;;;;;;;4879115;29;20418;-69
2021/05/19 18:30:10;;;;;;;10.23;6.50;;;;;;;;;;4879296;29;20045;-67
2021/05/19 18:32:48;;;;;;;10.45;7.00;;;;;;;;;;4879040;29;20025;-67
2021/05/19 18:35:20;;;;;;;11.25;7.30;;;;;;;;;;4878565;29;20017;-67
2021/05/19 18:37:46;;;;;;;11.15;6.88;;;;;;;;;;4878678;29;20121;-68
2021/05/19 18:40:12;;;;;;;9.80;7.10;;;;;;;;;;4873420;29;20421;-65
2021/05/19 18:42:42;;;;;;;9.82;6.40;;;;;;;;;;4878675;29;20862;-65
2021/05/19 18:45:08;;;;;;;11.07;6.75;;;;;;;;;;4878562;29;20073;-68
2021/05/19 18:47:34;;;;;;;10.52;6.07;;;;;;;;;;4878137;29;20033;-66
2021/05/19 18:50:01;;;;;;;10.23;6.25;;;;;;;;;;4878715;29;20040;-67
2021/05/19 18:52:27;;;;;;;11.50;6.40;;;;;;;;;;4878133;29;20035;-65
2021/05/19 18:54:53;;;;;;;11.55;7.70;;;;;;;;;;4877886;29;20019;-65
2021/05/19 18:57:19;;;;;;;10.82;7.18;;;;;;;;;;4878552;29;20029;-67
2021/05/19 18:59:46;;;;;;;10.07;7.20;;;;;;;;;;4878100;29;20504;-65
2021/05/19 19:02:12;;;;;;;13.63;7.40;;;;;;;;;;4877507;29;20029;-66
2021/05/19 19:04:41;;;;;;;9.30;6.40;;;;;;;;;;4877445;29;20045;-65
2021/05/19 19:07:08;;;;;;;10.82;6.90;;;;;;;;;;4876371;29;20096;-67
2021/05/19 19:09:34;;;;;;;8.93;6.38;;;;;;;;;;4877285;29;20088;-67
2021/05/19 19:12:01;;;;;;;11.82;6.88;;;;;;;;;;4877857;29;20037;-64
2021/05/19 19:14:27;;;;;;;8.38;6.32;;;;;;;;;;4877459;29;20044;-66
2021/05/19 19:16:53;;;;;;;10.55;6.65;;;;;;;;;;4877673;29;20029;-66
2021/05/19 19:19:25;;;;;;;9.35;6.43;;;;;;;;;;4875986;29;20438;-66
2021/05/19 19:21:51;;;;;;;9.88;6.40;;;;;;;;;;4877327;29;20484;-66
2021/05/19 19:24:17;;;;;;;8.73;6.50;;;;;;;;;;4877818;29;20045;-66
2021/05/19 19:26:44;;;;;;;13.65;7.53;;;;;;;;;;4877171;29;20061;-66
2021/05/19 19:29:13;;;;;;;10.75;6.97;;;;;;;;;;4877985;29;20438;-65
2021/05/19 19:31:39;;;;;;;10.57;7.47;;;;;;;;;;4877899;29;20017;-65
2021/05/19 19:34:05;;;;;;;10.20;7.30;;;;;;;;;;4877717;29;20021;-66
2021/05/19 19:36:32;;;;;;;11.00;6.93;;;;;;;;;;4877514;29;20036;-68
2021/05/19 19:38:58;;;;;;;11.57;6.95;;;;;;;;;;4884697;29;20618;-66
2021/05/19 19:41:24;;;;;;;9.98;6.60;;;;;;;;;;4876231;29;20044;-65
2021/05/19 19:43:50;;;;;;;12.57;7.15;;;;;;;;;;4877410;29;20041;-66
2021/05/19 20:04:56;;;;;;;10.85;7.05;;;;;;;;;;4891463;29;20051;-68
2021/05/19 20:07:40;;;;;;;11.23;7.20;;;;;;;;;;4893554;29;20075;-67
2021/05/19 20:10:26;;;;;;;10.35;6.93;;;;;;;;;;4892996;29;20039;-70
2021/05/19 20:15:55;;;;;;;13.38;8.55;;;;;;;;;;4894839;29;20504;-67
2021/05/19 20:18:22;;;;;;;12.25;7.97;;;;;;;;;;4892431;29;20028;-68
2021/05/19 20:20:48;;;;;;;13.20;8.50;;;;;;;;;;4893345;29;20043;-68
2021/05/19 20:23:16;;;;;;;13.23;9.10;;;;;;;;;;4894122;29;20044;-72
2021/05/19 20:25:42;;;;;;;11.93;8.43;;;;;;;;;;4894810;29;20115;-77
2021/05/19 20:28:08;;;;;;;14.65;8.35;;;;;;;;;;4894391;29;20043;-76
2021/05/19 20:30:34;;;;;;;11.20;8.23;;;;;;;;;;4877156;29;20084;-71
2021/05/19 20:33:04;;;;;;;12.20;8.05;;;;;;;;;;4894813;29;20029;-72
2021/05/19 20:35:30;;;;;;;11.68;7.35;;;;;;;;;;4902197;29;20099;-72
2021/05/19 20:37:57;;;;;;;12.80;9.70;;;;;;;;;;4911909;29;20060;-70
2021/05/19 20:40:23;;;;;;;9.80;7.20;;;;;;;;;;4913092;29;20436;-69
2021/05/19 20:42:49;;;;;;;11.50;7.82;;;;;;;;;;4912860;29;20595;-73
2021/05/19 20:45:15;;;;;;;11.13;8.18;;;;;;;;;;4912685;29;20456;-68
2021/05/19 20:47:41;;;;;;;10.52;8.77;;;;;;;;;;4913353;29;20072;-71
2021/05/19 20:50:08;;;;;;;13.68;8.70;;;;;;;;;;4904316;29;20524;-72
2021/05/19 20:52:34;;;;;;;12.63;8.57;;;;;;;;;;4894899;29;20059;-70
2021/05/19 20:55:00;;;;;;;10.60;8.63;;;;;;;;;;4896045;29;20029;-69
2021/05/19 20:57:26;;;;;;;10.93;8.40;;;;;;;;;;4879343;29;20108;-73
2021/05/19 20:59:53;;;;;;;13.25;8.90;;;;;;;;;;4899285;29;20017;-72
2021/05/19 21:02:20;;;;;;;12.15;8.35;;;;;;;;;;4907320;29;20458;-72
2021/05/19 21:04:50;;;;;;;12.70;9.00;;;;;;;;;;4901937;29;20134;-72
2021/05/19 21:07:34;;;;;;;12.95;8.65;;;;;;;;;;4905326;29;20052;-73
2021/05/19 21:10:01;;;;;;;16.92;10.60;;;;;;;;;;4903580;29;20512;-70
2021/05/19 21:12:28;;;;;;;12.65;9.60;;;;;;;;;;4909483;29;20020;-71
2021/05/19 21:14:54;;;;;;;12.95;9.40;;;;;;;;;;4906191;29;20040;-69
2021/05/19 21:17:20;;;;;;;13.82;10.10;;;;;;;;;;4906169;29;20032;-73
2021/05/19 21:19:47;;;;;;;15.60;9.45;;;;;;;;;;4902124;29;20032;-71
2021/05/19 21:22:13;;;;;;;13.23;8.95;;;;;;;;;;4910011;29;20439;-70
2021/05/19 21:24:39;;;;;;;15.15;9.65;;;;;;;;;;4889808;29;20050;-72
2021/05/19 21:27:06;;;;;;;11.70;9.27;;;;;;;;;;4911183;29;20039;-73
2021/05/19 21:29:32;;;;;;;13.60;10.00;;;;;;;;;;4896588;29;20071;-71
2021/05/19 21:31:58;;;;;;;12.68;9.82;;;;;;;;;;4915879;29;20024;-73
2021/05/19 21:34:27;;;;;;;14.27;9.75;;;;;;;;;;4910442;29;20040;-70
2021/05/19 21:36:54;;;;;;;12.15;9.35;;;;;;;;;;4904635;29;20032;-71
2021/05/19 21:39:20;;;;;;;12.82;9.45;;;;;;;;;;4905972;29;20103;-71
2021/05/19 21:41:47;;;;;;;11.73;9.27;;;;;;;;;;4895127;29;20035;-73
2021/05/19 21:44:13;;;;;;;12.10;8.70;;;;;;;;;;4894329;29;20593;-72